首页
METAR-TAF:

METAR-TAF

机场 :

乌兰巴托, 蒙古国

成吉思汗國際機場

纬度: 47-55N, 经度: 106-52E, 海拔: 1306米

当前天气观测

该预报发布于17分钟前的03:00 UTC
风速4节,风向南转南东
温度 -29°C
湿度 68%
气压 1015 hPa
能見度: 4000

METAR: ZMUB 200300Z 16002MPS 4000NW FU NSC M29/M33 Q1015 NOSIG RMK QFE654.5 69 NW MO

时间: 11:17 (03:17 UTC)

预报

该预报发布于4小时和37分钟前的22:40 UTC
预报有效从20日的 00点(UTC)到 21日的 06点(UTC)
风速4节,风向多变
能見度: 6000
散云层高于10000英尺
成为
从 20日的 01点(UTC)到 20日的 03点(UTC)
能見度: 3000
成为
从 20日的 05点(UTC)到 20日的 07点(UTC)
能見度: 6000

TAF: ZMUB 192240Z 2000/2106 VRB02MPS 6000 SCT100 TXM21/2007Z TNM36/2022Z BECMG 2001/2003 3000 FU BECMG 2005/2007 6000

超过4000个机场的气象观测和天气预报(METAR&TAF报告)。

可查询的气象台以黄色和红色小点在地图上表示。

将鼠标移到小点上方,可查看气象台名称。

然后点击查看天气观测和预报。

如需切换地图:点击带黑十字的绿色按钮放大地图;点击带横线的绿色按钮缩小地图;或者点击绿色箭头查看邻近地区的地图。


METAR-TAF: